createdAt,value
2024-05-09T00:00:39.192Z,101596.41
2024-05-09T00:03:42.917Z,101603.41
2024-05-09T00:06:44.702Z,101609.19
2024-05-09T00:09:48.061Z,101605.44
2024-05-09T00:12:49.745Z,101601.00
2024-05-09T00:15:51.469Z,101600.13
2024-05-09T00:18:53.343Z,101593.81
2024-05-09T00:21:55.150Z,101600.28
2024-05-09T00:24:56.801Z,101604.00
2024-05-09T00:27:58.485Z,101596.72
2024-05-09T00:31:00.097Z,101602.16
2024-05-09T00:34:01.996Z,101597.72
2024-05-09T00:37:04.006Z,101596.84
2024-05-09T00:40:09.570Z,101594.13
2024-05-09T00:43:14.776Z,101591.53
2024-05-09T00:46:17.595Z,101588.81
2024-05-09T00:49:19.548Z,101594.25
2024-05-09T00:52:21.796Z,101596.00
2024-05-09T00:55:23.980Z,101593.41
2024-05-09T00:58:28.428Z,101598.88
2024-05-09T01:01:30.520Z,101587.41
2024-05-09T01:04:32.252Z,101591.00
2024-05-09T01:07:34.297Z,101592.00
2024-05-09T01:10:37.079Z,101594.75
2024-05-09T01:13:38.860Z,101597.59
2024-05-09T01:16:40.581Z,101596.75
2024-05-09T01:19:43.995Z,101590.44
2024-05-09T01:22:47.059Z,101588.72
2024-05-09T01:25:48.805Z,101596.03
2024-05-09T01:28:50.589Z,101594.34
2024-05-09T01:31:52.398Z,101600.63
2024-05-09T01:34:54.226Z,101591.75
2024-05-09T01:37:55.934Z,101595.47
2024-05-09T01:40:58.062Z,101593.63
2024-05-09T01:43:59.763Z,101595.59
2024-05-09T01:47:01.555Z,101595.59
2024-05-09T01:50:06.600Z,101589.44
2024-05-09T01:53:13.070Z,101586.72
2024-05-09T01:56:15.304Z,101600.66
2024-05-09T01:59:17.098Z,101597.06
2024-05-09T02:02:19.006Z,101592.59
2024-05-09T02:05:20.972Z,101598.22
2024-05-09T02:08:22.879Z,101600.09
2024-05-09T02:11:24.809Z,101603.69
2024-05-09T02:14:26.702Z,101594.91
2024-05-09T02:17:28.732Z,101585.03
2024-05-09T02:20:36.138Z,101591.50
2024-05-09T02:23:38.874Z,101585.34
2024-05-09T02:26:40.691Z,101591.66
2024-05-09T02:29:45.063Z,101579.19
2024-05-09T02:32:46.942Z,101582.94
2024-05-09T02:35:48.742Z,101589.38
2024-05-09T02:38:50.403Z,101589.53
2024-05-09T02:41:52.071Z,101594.09
2024-05-09T02:44:53.815Z,101587.97
2024-05-09T02:47:55.916Z,101585.38
2024-05-09T02:50:57.766Z,101592.84
2024-05-09T02:53:59.495Z,101597.44
2024-05-09T02:57:01.135Z,101591.25
2024-05-09T03:00:03.669Z,101587.81
2024-05-09T03:03:09.457Z,101594.16
2024-05-09T03:06:12.731Z,101590.72
2024-05-09T03:09:14.513Z,101597.88
2024-05-09T03:12:16.311Z,101589.16
2024-05-09T03:15:18.420Z,101590.00
2024-05-09T03:18:20.203Z,101581.28
2024-05-09T03:21:22.091Z,101588.44
2024-05-09T03:24:23.928Z,101578.56
2024-05-09T03:27:25.925Z,101585.00
2024-05-09T03:30:38.808Z,101587.00
2024-05-09T03:33:44.015Z,101586.34
2024-05-09T03:36:45.897Z,101580.81
2024-05-09T03:39:47.556Z,101585.53
2024-05-09T03:42:49.246Z,101586.09
2024-05-09T03:45:50.926Z,101588.00
2024-05-09T03:48:52.771Z,101588.47
2024-05-09T03:51:54.429Z,101588.78
2024-05-09T03:54:56.118Z,101584.25
2024-05-09T03:57:57.807Z,101584.34
2024-05-09T04:00:59.698Z,101591.88
2024-05-09T04:04:01.447Z,101580.63
2024-05-09T04:07:03.266Z,101582.03
2024-05-09T04:10:08.925Z,101581.25
2024-05-09T04:13:11.036Z,101570.84
2024-05-09T04:16:12.770Z,101575.31
2024-05-09T04:19:14.648Z,101581.47
2024-05-09T04:22:17.221Z,101578.75
2024-05-09T04:25:18.957Z,101573.28
2024-05-09T04:28:20.738Z,101578.41
2024-05-09T04:31:22.441Z,101580.97
2024-05-09T04:34:24.322Z,101582.84
2024-05-09T04:37:26.587Z,101582.69
2024-05-09T04:40:33.523Z,101582.53
2024-05-09T04:43:37.777Z,101584.97
2024-05-09T04:46:42.406Z,101585.47
2024-05-09T04:49:46.557Z,101581.72
2024-05-09T04:52:49.655Z,101587.03
2024-05-09T04:55:51.509Z,101584.72
2024-05-09T04:58:53.343Z,101588.91
2024-05-09T05:01:56.683Z,101586.75
2024-05-09T05:04:58.584Z,101586.75
2024-05-09T05:08:00.787Z,101594.09
2024-05-09T05:11:03.442Z,101598.31
2024-05-09T05:14:05.296Z,101592.28
2024-05-09T05:17:07.738Z,101597.09
2024-05-09T05:20:15.046Z,101591.59
2024-05-09T05:23:20.900Z,101599.53
2024-05-09T05:26:22.776Z,101593.84
2024-05-09T05:29:24.487Z,101599.66
2024-05-09T05:32:26.410Z,101594.38
2024-05-09T05:35:28.434Z,101592.28
2024-05-09T05:38:30.371Z,101591.78
2024-05-09T05:41:32.157Z,101599.72
2024-05-09T05:44:34.092Z,101603.22
2024-05-09T05:47:37.716Z,101611.16
2024-05-09T05:50:39.624Z,101609.34
2024-05-09T05:53:41.464Z,101605.97
2024-05-09T05:56:43.213Z,101617.13
2024-05-09T05:59:44.949Z,101615.09
2024-05-09T06:02:46.854Z,101615.31
2024-05-09T06:05:48.791Z,101617.75
2024-05-09T06:08:50.734Z,101622.88
2024-05-09T06:11:52.739Z,101622.22
2024-05-09T06:14:54.502Z,101609.97
2024-05-09T06:17:56.327Z,101613.09
2024-05-09T06:20:58.159Z,101614.47
2024-05-09T06:27:01.873Z,101616.59
2024-05-09T06:30:03.920Z,101615.22
2024-05-09T06:33:06.509Z,101613.03
2024-05-09T06:36:08.348Z,101616.28
2024-05-09T06:39:10.210Z,101605.72
2024-05-09T06:42:11.847Z,101610.56
2024-05-09T06:45:15.653Z,101606.31
2024-05-09T06:48:19.171Z,101619.31
2024-05-09T06:51:21.418Z,101614.53
2024-05-09T06:54:23.136Z,101613.34
2024-05-09T06:57:24.804Z,101612.84
2024-05-09T07:00:34.793Z,101606.00
2024-05-09T07:03:41.624Z,101602.63
2024-05-09T07:06:43.397Z,101606.91
2024-05-09T07:09:45.086Z,101607.63
2024-05-09T07:12:46.962Z,101613.44
2024-05-09T07:15:48.662Z,101617.75
2024-05-09T07:18:54.938Z,101620.84
2024-05-09T07:21:58.032Z,101607.69
2024-05-09T07:24:59.744Z,101616.41
2024-05-09T07:28:01.494Z,101615.91
2024-05-09T07:31:03.187Z,101609.22
2024-05-09T07:34:05.005Z,101603.41
2024-05-09T07:37:12.514Z,101606.84
2024-05-09T07:40:24.122Z,101608.94
2024-05-09T07:43:30.361Z,101610.47
2024-05-09T07:53:34.241Z,101617.50
2024-05-09T07:56:03.382Z,101608.25
2024-05-09T07:59:05.252Z,101608.94
2024-05-09T08:02:07.126Z,101606.03
2024-05-09T08:05:09.060Z,101607.38
2024-05-09T08:08:11.376Z,101599.88
2024-05-09T08:11:13.329Z,101603.59
2024-05-09T08:14:15.103Z,101601.50
2024-05-09T08:17:16.851Z,101596.97
2024-05-09T08:20:26.860Z,101598.00
2024-05-09T08:23:32.851Z,101592.91
2024-05-09T08:26:34.476Z,101596.38
2024-05-09T08:29:37.084Z,101591.75
2024-05-09T08:32:40.463Z,101594.34
2024-05-09T08:35:42.246Z,101595.41
2024-05-09T08:38:44.037Z,101581.91
2024-05-09T08:41:49.543Z,101582.91
2024-05-09T08:44:52.232Z,101583.44
2024-05-09T08:47:55.143Z,101588.22
2024-05-09T08:50:59.392Z,101584.97
2024-05-09T08:54:01.217Z,101586.34
2024-05-09T08:57:04.609Z,101591.13
2024-05-09T09:00:12.514Z,101590.63
2024-05-09T09:03:24.860Z,101593.69
2024-05-09T09:06:27.408Z,101592.53
2024-05-09T09:09:29.786Z,101595.78
2024-05-09T09:12:32.260Z,101594.41
2024-05-09T09:15:34.165Z,101593.91
2024-05-09T09:18:36.221Z,101580.84
2024-05-09T09:21:37.959Z,101592.34
2024-05-09T09:24:40.131Z,101586.50
2024-05-09T09:27:41.880Z,101585.31
2024-05-09T09:30:44.399Z,101580.31
2024-05-09T09:33:46.592Z,101583.94
2024-05-09T09:36:49.632Z,101587.00
2024-05-09T09:39:51.809Z,101579.78
2024-05-09T09:42:57.769Z,101575.69
2024-05-09T09:46:00.761Z,101573.78
2024-05-09T09:49:02.905Z,101571.06
2024-05-09T09:52:07.612Z,101569.16
2024-05-09T09:55:11.456Z,101569.69
2024-05-09T09:58:15.939Z,101567.44
2024-05-09T10:01:17.786Z,101566.22
2024-05-09T10:04:19.828Z,101558.00
2024-05-09T10:07:22.739Z,101557.84
2024-05-09T10:10:31.891Z,101557.47
2024-05-09T10:13:35.365Z,101560.56
2024-05-09T10:16:43.878Z,101549.41
2024-05-09T10:19:47.010Z,101550.09
2024-05-09T10:22:50.435Z,101544.09
2024-05-09T10:26:03.508Z,101547.31
2024-05-09T10:29:17.066Z,101548.84
2024-05-09T10:32:19.109Z,101550.56
2024-05-09T10:35:22.671Z,101541.31
2024-05-09T10:38:24.887Z,101533.91
2024-05-09T10:41:26.557Z,101535.66
2024-05-09T10:44:28.306Z,101532.72
2024-05-09T10:47:30.265Z,101530.81
2024-05-09T10:50:34.368Z,101528.75
2024-05-09T10:53:44.045Z,101528.59
2024-05-09T10:56:46.138Z,101528.75
2024-05-09T10:59:52.310Z,101517.63
2024-05-09T11:02:55.652Z,101516.78
2024-05-09T11:05:58.050Z,101517.44
2024-05-09T11:08:59.969Z,101520.03
2024-05-09T11:12:03.019Z,101512.47
2024-05-09T11:15:05.767Z,101510.59
2024-05-09T11:18:08.621Z,101504.06
2024-05-09T11:21:13.982Z,101508.69
2024-05-09T11:24:15.834Z,101504.06
2024-05-09T11:27:23.426Z,101495.81
2024-05-09T11:30:31.557Z,101489.50
2024-05-09T11:33:40.224Z,101492.75
2024-05-09T11:36:42.062Z,101484.50
2024-05-09T11:39:44.189Z,101485.38
2024-05-09T11:42:48.770Z,101486.22
2024-05-09T11:45:52.729Z,101476.28
2024-05-09T11:48:54.780Z,101475.25
2024-05-09T11:51:56.772Z,101471.44
2024-05-09T11:54:58.563Z,101470.44
2024-05-09T11:58:00.432Z,101471.44
2024-05-09T12:01:02.579Z,101472.31
2024-05-09T12:04:04.927Z,101469.59
2024-05-09T12:07:09.101Z,101461.16
2024-05-09T12:10:16.807Z,101465.63
2024-05-09T12:13:21.662Z,101458.03
2024-05-09T12:16:23.690Z,101455.13
2024-05-09T12:19:25.698Z,101460.78
2024-05-09T12:22:27.490Z,101457.03
2024-05-09T12:25:29.171Z,101461.47
2024-05-09T12:28:30.955Z,101454.06
2024-05-09T12:31:32.792Z,101452.00
2024-05-09T12:34:34.809Z,101450.13
2024-05-09T12:37:36.548Z,101445.50
2024-05-09T12:40:39.384Z,101446.34
2024-05-09T12:43:41.324Z,101438.13
2024-05-09T12:46:43.247Z,101446.34
2024-05-09T12:49:45.101Z,101440.66
2024-05-09T12:52:46.908Z,101440.50
2024-05-09T12:55:56.552Z,101435.00
2024-05-09T12:59:01.894Z,101426.59
2024-05-09T13:02:04.012Z,101419.22
2024-05-09T13:05:06.141Z,101416.66
2024-05-09T13:08:07.941Z,101408.41
2024-05-09T13:11:09.851Z,101397.25
2024-05-09T13:14:11.548Z,101395.19
2024-05-09T13:17:13.379Z,101402.00
2024-05-09T13:20:25.570Z,101399.25
2024-05-09T13:23:31.166Z,101402.22
2024-05-09T13:26:32.819Z,101396.50
2024-05-09T13:29:34.507Z,101391.03
2024-05-09T13:32:36.256Z,101394.81
2024-05-09T13:35:38.037Z,101376.63
2024-05-09T13:38:39.790Z,101377.69
2024-05-09T13:41:41.484Z,101381.28
2024-05-09T13:44:43.134Z,101373.03
2024-05-09T13:47:45.047Z,101366.88
2024-05-09T13:50:47.082Z,101370.28
2024-05-09T13:53:48.903Z,101366.88
2024-05-09T13:56:52.222Z,101365.84
2024-05-09T13:59:54.042Z,101366.69
2024-05-09T14:02:55.791Z,101359.31
2024-05-09T14:05:57.783Z,101365.47
2024-05-09T14:08:59.583Z,101358.09
2024-05-09T14:12:01.324Z,101355.34
2024-05-09T14:15:02.977Z,101350.06
2024-05-09T14:18:05.560Z,101345.41
2024-05-09T14:21:07.869Z,101346.66
2024-05-09T14:24:09.582Z,101342.00
2024-05-09T14:27:11.265Z,101339.25
2024-05-09T14:30:22.078Z,101341.84
2024-05-09T14:33:28.000Z,101339.09
2024-05-09T14:36:29.963Z,101333.59
2024-05-09T14:39:31.638Z,101336.34
2024-05-09T14:42:33.490Z,101335.47
2024-05-09T14:45:35.545Z,101328.28
2024-05-09T14:48:38.102Z,101323.47
2024-05-09T14:51:40.908Z,101327.06
2024-05-09T14:54:42.608Z,101321.41
2024-05-09T14:57:44.560Z,101312.97
2024-05-09T15:00:50.213Z,101314.84
2024-05-09T15:03:54.320Z,101314.47
2024-05-09T15:06:56.682Z,101310.72
2024-05-09T15:09:58.574Z,101309.84
2024-05-09T15:13:00.523Z,101312.22
2024-05-09T15:16:02.454Z,101301.44
2024-05-09T15:19:04.398Z,101302.78
2024-05-09T15:22:07.299Z,101296.22
2024-05-09T15:25:09.138Z,101300.66
2024-05-09T15:28:11.028Z,101293.94
2024-05-09T15:31:12.826Z,101292.94
2024-05-09T15:34:14.556Z,101283.84
2024-05-09T15:37:16.565Z,101283.84
2024-05-09T15:40:26.452Z,101284.03
2024-05-09T15:43:37.225Z,101282.97
2024-05-09T15:46:39.004Z,101279.38
2024-05-09T15:49:41.672Z,101274.94
2024-05-09T15:52:43.404Z,101275.13
2024-05-09T15:55:45.158Z,101266.59
2024-05-09T15:58:46.800Z,101277.84
2024-05-09T16:01:48.655Z,101269.25
2024-05-09T16:04:50.442Z,101267.16
2024-05-09T16:07:52.471Z,101268.22
2024-05-09T16:10:54.448Z,101267.38
2024-05-09T16:13:56.359Z,101269.06
2024-05-09T16:16:58.185Z,101267.00
2024-05-09T16:20:00.179Z,101267.16
2024-05-09T16:23:04.207Z,101258.94
2024-05-09T16:26:06.639Z,101258.09
2024-05-09T16:29:08.675Z,101254.88
2024-05-09T16:32:10.431Z,101260.38
2024-05-09T16:35:12.407Z,101250.41
2024-05-09T16:38:14.166Z,101264.63
2024-05-09T16:41:15.906Z,101264.41
2024-05-09T16:44:18.012Z,101254.50
2024-05-09T16:47:20.265Z,101256.00
2024-05-09T16:50:28.855Z,101257.53
2024-05-09T16:53:33.808Z,101254.78
2024-05-09T16:56:37.930Z,101259.22
2024-05-09T16:59:40.699Z,101254.56
2024-05-09T17:02:44.263Z,101250.81
2024-05-09T17:05:47.262Z,101250.81
2024-05-09T17:08:49.599Z,101249.75
2024-05-09T17:11:51.341Z,101251.47
2024-05-09T17:14:53.082Z,101252.50
2024-05-09T17:17:55.472Z,101245.97
2024-05-09T17:20:57.272Z,101241.50
2024-05-09T17:23:59.044Z,101238.09
2024-05-09T17:27:01.247Z,101239.16
2024-05-09T17:30:06.051Z,101241.06
2024-05-09T17:33:09.698Z,101234.91
2024-05-09T17:36:12.576Z,101234.44
2024-05-09T17:39:14.359Z,101228.66
2024-05-09T17:42:16.044Z,101236.22
2024-05-09T17:45:17.770Z,101233.88
2024-05-09T17:48:19.879Z,101235.72
2024-05-09T17:51:21.669Z,101232.13
2024-05-09T17:54:23.344Z,101227.03
2024-05-09T17:57:26.243Z,101235.44
2024-05-09T18:00:37.156Z,101231.19
2024-05-09T18:03:43.716Z,101236.38
2024-05-09T18:06:45.527Z,101237.44
2024-05-09T18:09:47.241Z,101235.75
2024-05-09T18:12:49.026Z,101238.66
2024-05-09T18:15:50.859Z,101236.97
2024-05-09T18:18:52.763Z,101238.19
2024-05-09T18:21:54.639Z,101247.44
2024-05-09T18:24:56.504Z,101244.03
2024-05-09T18:27:58.327Z,101244.41
2024-05-09T18:31:00.081Z,101239.31
2024-05-09T18:34:02.047Z,101247.91
2024-05-09T18:37:04.709Z,101251.88
2024-05-09T18:40:11.755Z,101252.06
2024-05-09T18:43:13.662Z,101263.22
2024-05-09T18:46:15.508Z,101251.56
2024-05-09T18:49:17.520Z,101262.69
2024-05-09T18:52:19.512Z,101252.97
2024-05-09T18:55:21.225Z,101257.75
2024-05-09T18:58:23.410Z,101267.88
2024-05-09T19:01:25.334Z,101269.97
2024-05-09T19:04:27.219Z,101272.22
2024-05-09T19:07:28.951Z,101267.78
2024-05-09T19:10:34.536Z,101277.03
2024-05-09T19:13:37.490Z,101270.03
2024-05-09T19:16:39.273Z,101270.56
2024-05-09T19:19:41.025Z,101284.50
2024-05-09T19:22:42.718Z,101279.38
2024-05-09T19:25:44.514Z,101278.69
2024-05-09T19:28:46.320Z,101278.03
2024-05-09T19:31:48.059Z,101291.13
2024-05-09T19:34:49.772Z,101287.22
2024-05-09T19:37:52.600Z,101289.06
2024-05-09T19:40:54.512Z,101283.84
2024-05-09T19:43:56.396Z,101293.28
2024-05-09T19:46:58.165Z,101293.16
2024-05-09T19:49:59.946Z,101298.28
2024-05-09T19:53:01.746Z,101300.50
2024-05-09T19:56:03.523Z,101306.00
2024-05-09T19:59:05.218Z,101299.50
2024-05-09T20:02:07.183Z,101295.91
2024-05-09T20:05:09.294Z,101293.84
2024-05-09T20:08:11.503Z,101300.84
2024-05-09T20:11:14.988Z,101303.53
2024-05-09T20:14:16.798Z,101305.91
2024-05-09T20:17:18.529Z,101304.72
2024-05-09T20:20:28.202Z,101298.56
2024-05-09T20:23:37.842Z,101302.81
2024-05-09T20:26:39.703Z,101302.13
2024-05-09T20:29:41.375Z,101303.47
2024-05-09T20:32:43.299Z,101307.56
2024-05-09T20:35:45.270Z,101304.16
2024-05-09T20:38:46.965Z,101303.44
2024-05-09T20:41:48.689Z,101309.25
2024-05-09T20:44:51.136Z,101309.41
2024-05-09T20:47:53.177Z,101303.44
2024-05-09T20:50:55.090Z,101303.75
2024-05-09T20:53:56.843Z,101306.81
2024-05-09T20:56:58.708Z,101309.03
2024-05-09T21:00:00.516Z,101308.47
2024-05-09T21:03:02.341Z,101310.38
2024-05-09T21:06:04.357Z,101310.69
2024-05-09T21:09:06.076Z,101308.47
2024-05-09T21:12:07.882Z,101305.22
2024-05-09T21:15:09.580Z,101293.94
2024-05-09T21:18:11.494Z,101295.69
2024-05-09T21:21:13.188Z,101304.03
2024-05-09T21:24:14.925Z,101307.69
2024-05-09T21:27:16.837Z,101306.09
2024-05-09T21:30:27.893Z,101302.56
2024-05-09T21:33:39.274Z,101311.72
2024-05-09T21:36:41.137Z,101305.47
2024-05-09T21:39:43.079Z,101305.41
2024-05-09T21:42:45.590Z,101305.44
2024-05-09T21:45:47.369Z,101307.53
2024-05-09T21:48:49.290Z,101301.44
2024-05-09T21:51:51.061Z,101303.66
2024-05-09T21:54:53.047Z,101304.03
2024-05-09T21:57:56.455Z,101309.72
2024-05-09T22:00:58.385Z,101309.06
2024-05-09T22:04:00.302Z,101302.44
2024-05-09T22:07:04.607Z,101305.72
2024-05-09T22:10:12.860Z,101308.25
2024-05-09T22:13:21.625Z,101301.47
2024-05-09T22:16:24.489Z,101307.44
2024-05-09T22:19:26.324Z,101317.19
2024-05-09T22:22:28.090Z,101314.44
2024-05-09T22:25:30.887Z,101309.69
2024-05-09T22:28:33.786Z,101316.69
2024-05-09T22:31:35.610Z,101312.09
2024-05-09T22:34:37.372Z,101313.81
2024-05-09T22:37:39.130Z,101316.56
2024-05-09T22:40:47.413Z,101320.00
2024-05-09T22:43:51.385Z,101319.13
2024-05-09T22:46:53.055Z,101317.28
2024-05-09T22:49:54.750Z,101309.25
2024-05-09T22:52:56.386Z,101310.94
2024-05-09T22:55:58.045Z,101318.13
2024-05-09T22:59:00.622Z,101310.94
2024-05-09T23:02:03.129Z,101315.56
2024-05-09T23:05:05.313Z,101313.66
2024-05-09T23:08:08.571Z,101312.81
2024-05-09T23:11:10.414Z,101312.81
2024-05-09T23:14:12.114Z,101310.09
2024-05-09T23:17:13.826Z,101316.56
2024-05-09T23:20:21.686Z,101311.09
2024-05-09T23:23:30.629Z,101307.50
2024-05-09T23:26:32.379Z,101312.97
2024-05-09T23:29:34.153Z,101299.31
2024-05-09T23:32:35.977Z,101301.16
2024-05-09T23:35:38.427Z,101303.78
2024-05-09T23:38:41.140Z,101304.78
2024-05-09T23:41:42.788Z,101297.78
2024-05-09T23:44:44.512Z,101296.91
2024-05-09T23:47:46.864Z,101295.03
2024-05-09T23:50:48.588Z,101294.88
2024-05-09T23:53:50.202Z,101301.50
2024-05-09T23:56:51.916Z,101295.19
2024-05-09T23:59:53.891Z,101303.38
